sensor_id;sensor_type;location;lat;lon;timestamp;temperature;humidity
20045;DHT22;10183;47.808;9.476;2022-10-31T00:00:22;8.70;99.90
20045;DHT22;10183;47.808;9.476;2022-10-31T00:02:48;8.70;99.90
20045;DHT22;10183;47.808;9.476;2022-10-31T00:05:14;8.80;99.90
20045;DHT22;10183;47.808;9.476;2022-10-31T00:07:40;9.00;99.90
20045;DHT22;10183;47.808;9.476;2022-10-31T00:10:07;9.10;99.90
20045;DHT22;10183;47.808;9.476;2022-10-31T00:12:33;9.20;99.90
20045;DHT22;10183;47.808;9.476;2022-10-31T00:14:59;9.30;99.90
20045;DHT22;10183;47.808;9.476;2022-10-31T00:17:26;9.50;99.90
20045;DHT22;10183;47.808;9.476;2022-10-31T00:19:52;9.60;99.90
20045;DHT22;10183;47.808;9.476;2022-10-31T00:22:18;9.60;99.90
20045;DHT22;10183;47.808;9.476;2022-10-31T00:24:44;9.70;99.90
20045;DHT22;10183;47.808;9.476;2022-10-31T00:27:10;9.80;99.90
20045;DHT22;10183;47.808;9.476;2022-10-31T00:29:36;9.90;99.90
20045;DHT22;10183;47.808;9.476;2022-10-31T00:32:02;10.00;99.90
20045;DHT22;10183;47.808;9.476;2022-10-31T00:34:29;10.00;99.90
20045;DHT22;10183;47.808;9.476;2022-10-31T00:36:55;10.10;99.90
20045;DHT22;10183;47.808;9.476;2022-10-31T00:39:21;10.20;99.90
20045;DHT22;10183;47.808;9.476;2022-10-31T00:41:47;10.20;99.90
20045;DHT22;10183;47.808;9.476;2022-10-31T00:44:13;10.30;99.90
20045;DHT22;10183;47.808;9.476;2022-10-31T00:46:39;10.30;99.90
20045;DHT22;10183;47.808;9.476;2022-10-31T00:49:05;10.30;99.90
20045;DHT22;10183;47.808;9.476;2022-10-31T00:51:31;10.30;99.90
20045;DHT22;10183;47.808;9.476;2022-10-31T00:53:58;10.20;99.90
20045;DHT22;10183;47.808;9.476;2022-10-31T00:56:24;10.20;99.90
20045;DHT22;10183;47.808;9.476;2022-10-31T00:58:50;10.20;99.90
20045;DHT22;10183;47.808;9.476;2022-10-31T01:01:16;10.20;99.90
20045;DHT22;10183;47.808;9.476;2022-10-31T01:03:42;10.20;99.90
20045;DHT22;10183;47.808;9.476;2022-10-31T01:06:11;10.20;99.90
20045;DHT22;10183;47.808;9.476;2022-10-31T01:08:38;10.20;99.90
20045;DHT22;10183;47.808;9.476;2022-10-31T01:11:12;10.20;99.90
20045;DHT22;10183;47.808;9.476;2022-10-31T01:13:39;10.20;99.90
20045;DHT22;10183;47.808;9.476;2022-10-31T01:16:07;10.10;99.90
20045;DHT22;10183;47.808;9.476;2022-10-31T01:18:34;10.00;99.90
20045;DHT22;10183;47.808;9.476;2022-10-31T01:21:07;9.20;99.90
20045;DHT22;10183;47.808;9.476;2022-10-31T01:23:33;8.60;99.90
20045;DHT22;10183;47.808;9.476;2022-10-31T01:28:42;8.30;99.90
20045;DHT22;10183;47.808;9.476;2022-10-31T01:31:08;8.20;99.90
20045;DHT22;10183;47.808;9.476;2022-10-31T01:33:35;8.10;99.90
20045;DHT22;10183;47.808;9.476;2022-10-31T01:36:31;8.10;99.90
20045;DHT22;10183;47.808;9.476;2022-10-31T01:39:00;8.10;99.90
20045;DHT22;10183;47.808;9.476;2022-10-31T01:41:29;8.00;99.90
20045;DHT22;10183;47.808;9.476;2022-10-31T01:44:01;8.00;99.90
20045;DHT22;10183;47.808;9.476;2022-10-31T01:48:55;7.80;99.90
20045;DHT22;10183;47.808;9.476;2022-10-31T01:51:27;7.70;99.90
20045;DHT22;10183;47.808;9.476;2022-10-31T01:53:59;7.70;99.90
20045;DHT22;10183;47.808;9.476;2022-10-31T01:56:26;7.40;99.90
20045;DHT22;10183;47.808;9.476;2022-10-31T01:58:54;7.20;99.90
20045;DHT22;10183;47.808;9.476;2022-10-31T02:01:21;7.00;99.90
20045;DHT22;10183;47.808;9.476;2022-10-31T02:03:48;6.80;99.90
20045;DHT22;10183;47.808;9.476;2022-10-31T02:06:33;6.80;99.90
20045;DHT22;10183;47.808;9.476;2022-10-31T02:09:04;6.80;99.90
20045;DHT22;10183;47.808;9.476;2022-10-31T02:11:31;6.80;99.90
20045;DHT22;10183;47.808;9.476;2022-10-31T02:13:59;6.80;99.90
20045;DHT22;10183;47.808;9.476;2022-10-31T02:16:26;6.90;99.90
20045;DHT22;10183;47.808;9.476;2022-10-31T02:18:52;7.00;99.90
20045;DHT22;10183;47.808;9.476;2022-10-31T02:40:23;6.70;99.90
20045;DHT22;10183;47.808;9.476;2022-10-31T02:43:14;6.70;99.90
20045;DHT22;10183;47.808;9.476;2022-10-31T02:48:27;6.80;99.90
20045;DHT22;10183;47.808;9.476;2022-10-31T02:50:59;6.70;99.90
20045;DHT22;10183;47.808;9.476;2022-10-31T02:53:26;6.80;99.90
20045;DHT22;10183;47.808;9.476;2022-10-31T02:56:01;6.70;99.90
20045;DHT22;10183;47.808;9.476;2022-10-31T02:58:32;6.70;99.90
20045;DHT22;10183;47.808;9.476;2022-10-31T03:06:44;6.80;99.90
20045;DHT22;10183;47.808;9.476;2022-10-31T03:09:23;6.90;99.90
20045;DHT22;10183;47.808;9.476;2022-10-31T03:11:56;6.90;99.90
20045;DHT22;10183;47.808;9.476;2022-10-31T03:14:31;7.10;99.90
20045;DHT22;10183;47.808;9.476;2022-10-31T03:17:03;7.10;99.90
20045;DHT22;10183;47.808;9.476;2022-10-31T03:19:41;7.00;99.90
20045;DHT22;10183;47.808;9.476;2022-10-31T03:22:18;7.10;99.90
20045;DHT22;10183;47.808;9.476;2022-10-31T03:24:47;7.00;99.90
20045;DHT22;10183;47.808;9.476;2022-10-31T03:27:17;7.00;99.90
20045;DHT22;10183;47.808;9.476;2022-10-31T03:29:45;7.00;99.90
20045;DHT22;10183;47.808;9.476;2022-10-31T03:32:23;6.90;99.90
20045;DHT22;10183;47.808;9.476;2022-10-31T03:34:52;6.90;99.90
20045;DHT22;10183;47.808;9.476;2022-10-31T03:37:20;6.70;99.90
20045;DHT22;10183;47.808;9.476;2022-10-31T03:39:48;6.70;99.90
20045;DHT22;10183;47.808;9.476;2022-10-31T03:42:22;6.60;99.90
20045;DHT22;10183;47.808;9.476;2022-10-31T03:45:26;6.60;99.90
20045;DHT22;10183;47.808;9.476;2022-10-31T03:47:54;6.60;99.90
20045;DHT22;10183;47.808;9.476;2022-10-31T03:50:21;6.60;99.90
20045;DHT22;10183;47.808;9.476;2022-10-31T03:53:00;6.60;99.90
20045;DHT22;10183;47.808;9.476;2022-10-31T03:55:40;6.70;99.90
20045;DHT22;10183;47.808;9.476;2022-10-31T03:58:20;6.70;99.90
20045;DHT22;10183;47.808;9.476;2022-10-31T04:00:49;6.70;99.90
20045;DHT22;10183;47.808;9.476;2022-10-31T04:03:25;6.70;99.90
20045;DHT22;10183;47.808;9.476;2022-10-31T04:05:55;6.60;99.90
20045;DHT22;10183;47.808;9.476;2022-10-31T04:08:26;6.70;99.90
20045;DHT22;10183;47.808;9.476;2022-10-31T04:10:54;6.70;99.90
20045;DHT22;10183;47.808;9.476;2022-10-31T04:13:27;6.70;99.90
20045;DHT22;10183;47.808;9.476;2022-10-31T04:15:55;6.70;99.90
20045;DHT22;10183;47.808;9.476;2022-10-31T04:18:23;6.80;99.90
20045;DHT22;10183;47.808;9.476;2022-10-31T04:21:03;6.80;99.90
20045;DHT22;10183;47.808;9.476;2022-10-31T04:23:29;6.80;99.90
20045;DHT22;10183;47.808;9.476;2022-10-31T04:25:56;6.80;99.90
20045;DHT22;10183;47.808;9.476;2022-10-31T04:28:22;6.80;99.90
20045;DHT22;10183;47.808;9.476;2022-10-31T04:30:49;6.80;99.90
20045;DHT22;10183;47.808;9.476;2022-10-31T04:33:15;6.80;99.90
20045;DHT22;10183;47.808;9.476;2022-10-31T04:35:41;6.80;99.90
20045;DHT22;10183;47.808;9.476;2022-10-31T04:38:07;6.80;99.90
20045;DHT22;10183;47.808;9.476;2022-10-31T04:40:34;6.70;99.90
20045;DHT22;10183;47.808;9.476;2022-10-31T04:43:00;6.80;99.90
20045;DHT22;10183;47.808;9.476;2022-10-31T04:45:26;6.70;99.90
20045;DHT22;10183;47.808;9.476;2022-10-31T04:47:52;6.50;99.90
20045;DHT22;10183;47.808;9.476;2022-10-31T04:50:18;6.30;99.90
20045;DHT22;10183;47.808;9.476;2022-10-31T04:52:45;6.30;99.90
20045;DHT22;10183;47.808;9.476;2022-10-31T04:55:12;6.20;99.90
20045;DHT22;10183;47.808;9.476;2022-10-31T04:57:43;6.30;99.90
20045;DHT22;10183;47.808;9.476;2022-10-31T05:00:10;6.20;99.90
20045;DHT22;10183;47.808;9.476;2022-10-31T05:02:48;6.10;99.90
20045;DHT22;10183;47.808;9.476;2022-10-31T05:05:16;6.10;99.90
20045;DHT22;10183;47.808;9.476;2022-10-31T05:07:43;6.10;99.90
20045;DHT22;10183;47.808;9.476;2022-10-31T05:10:12;6.20;99.90
20045;DHT22;10183;47.808;9.476;2022-10-31T05:12:48;6.20;99.90
20045;DHT22;10183;47.808;9.476;2022-10-31T05:15:15;6.20;99.90
20045;DHT22;10183;47.808;9.476;2022-10-31T05:17:42;6.20;99.90
20045;DHT22;10183;47.808;9.476;2022-10-31T05:20:13;6.30;99.90
20045;DHT22;10183;47.808;9.476;2022-10-31T05:22:46;6.40;99.90
20045;DHT22;10183;47.808;9.476;2022-10-31T05:25:13;6.60;99.90
20045;DHT22;10183;47.808;9.476;2022-10-31T05:27:40;6.70;99.90
20045;DHT22;10183;47.808;9.476;2022-10-31T05:30:07;6.70;99.90
20045;DHT22;10183;47.808;9.476;2022-10-31T05:32:43;6.40;99.90
20045;DHT22;10183;47.808;9.476;2022-10-31T05:35:13;6.40;99.90
20045;DHT22;10183;47.808;9.476;2022-10-31T05:37:39;6.30;99.90
20045;DHT22;10183;47.808;9.476;2022-10-31T05:40:07;6.30;99.90
20045;DHT22;10183;47.808;9.476;2022-10-31T05:42:34;6.10;99.90
20045;DHT22;10183;47.808;9.476;2022-10-31T05:45:01;6.10;99.90
20045;DHT22;10183;47.808;9.476;2022-10-31T05:47:27;6.20;99.90
20045;DHT22;10183;47.808;9.476;2022-10-31T05:49:53;6.20;99.90
20045;DHT22;10183;47.808;9.476;2022-10-31T05:52:19;6.20;99.90
20045;DHT22;10183;47.808;9.476;2022-10-31T05:54:45;6.10;99.90
20045;DHT22;10183;47.808;9.476;2022-10-31T05:57:11;6.00;99.90
20045;DHT22;10183;47.808;9.476;2022-10-31T05:59:38;6.00;99.90
20045;DHT22;10183;47.808;9.476;2022-10-31T06:02:04;6.10;99.90
20045;DHT22;10183;47.808;9.476;2022-10-31T06:04:30;6.20;99.90
20045;DHT22;10183;47.808;9.476;2022-10-31T06:06:56;6.20;99.90
20045;DHT22;10183;47.808;9.476;2022-10-31T06:09:23;6.30;99.90
20045;DHT22;10183;47.808;9.476;2022-10-31T06:11:49;6.20;99.90
20045;DHT22;10183;47.808;9.476;2022-10-31T06:14:15;6.30;99.90
20045;DHT22;10183;47.808;9.476;2022-10-31T06:16:41;6.20;99.90
20045;DHT22;10183;47.808;9.476;2022-10-31T06:19:07;6.20;99.90
20045;DHT22;10183;47.808;9.476;2022-10-31T06:21:34;6.20;99.90
20045;DHT22;10183;47.808;9.476;2022-10-31T06:24:00;6.10;99.90
20045;DHT22;10183;47.808;9.476;2022-10-31T06:26:27;6.20;99.90
20045;DHT22;10183;47.808;9.476;2022-10-31T06:28:53;6.30;99.90
20045;DHT22;10183;47.808;9.476;2022-10-31T06:31:19;6.30;99.90
20045;DHT22;10183;47.808;9.476;2022-10-31T06:33:45;6.30;99.90
20045;DHT22;10183;47.808;9.476;2022-10-31T06:36:11;6.40;99.90
20045;DHT22;10183;47.808;9.476;2022-10-31T06:38:37;6.40;99.90
20045;DHT22;10183;47.808;9.476;2022-10-31T06:41:04;6.40;99.90
20045;DHT22;10183;47.808;9.476;2022-10-31T06:43:31;6.50;99.90
20045;DHT22;10183;47.808;9.476;2022-10-31T06:46:01;6.50;99.90
20045;DHT22;10183;47.808;9.476;2022-10-31T06:48:28;6.60;99.90
20045;DHT22;10183;47.808;9.476;2022-10-31T06:51:00;6.60;99.90
20045;DHT22;10183;47.808;9.476;2022-10-31T06:53:27;6.70;99.90
20045;DHT22;10183;47.808;9.476;2022-10-31T06:55:56;6.70;99.90
20045;DHT22;10183;47.808;9.476;2022-10-31T06:58:22;6.80;99.90
20045;DHT22;10183;47.808;9.476;2022-10-31T07:00:48;6.80;99.90
20045;DHT22;10183;47.808;9.476;2022-10-31T07:03:15;6.90;99.90
20045;DHT22;10183;47.808;9.476;2022-10-31T07:05:42;6.90;99.90
20045;DHT22;10183;47.808;9.476;2022-10-31T07:08:13;7.00;99.90
20045;DHT22;10183;47.808;9.476;2022-10-31T07:10:40;7.00;99.90
20045;DHT22;10183;47.808;9.476;2022-10-31T07:13:13;7.10;99.90
20045;DHT22;10183;47.808;9.476;2022-10-31T07:15:43;7.30;99.90
20045;DHT22;10183;47.808;9.476;2022-10-31T07:18:10;7.30;99.90
20045;DHT22;10183;47.808;9.476;2022-10-31T07:20:37;7.50;99.90
20045;DHT22;10183;47.808;9.476;2022-10-31T07:23:03;7.60;99.90
20045;DHT22;10183;47.808;9.476;2022-10-31T07:25:30;7.60;99.90
20045;DHT22;10183;47.808;9.476;2022-10-31T07:27:56;7.60;99.90
20045;DHT22;10183;47.808;9.476;2022-10-31T07:30:22;7.70;99.90
20045;DHT22;10183;47.808;9.476;2022-10-31T07:32:50;7.90;99.90
20045;DHT22;10183;47.808;9.476;2022-10-31T07:35:27;8.00;99.90
20045;DHT22;10183;47.808;9.476;2022-10-31T07:37:54;8.20;99.90
20045;DHT22;10183;47.808;9.476;2022-10-31T07:40:21;8.10;99.90
20045;DHT22;10183;47.808;9.476;2022-10-31T07:42:49;8.10;99.90
20045;DHT22;10183;47.808;9.476;2022-10-31T07:45:18;8.20;99.90
20045;DHT22;10183;47.808;9.476;2022-10-31T07:47:46;8.30;99.90
20045;DHT22;10183;47.808;9.476;2022-10-31T07:50:18;8.40;99.90
20045;DHT22;10183;47.808;9.476;2022-10-31T07:52:44;8.40;99.90
20045;DHT22;10183;47.808;9.476;2022-10-31T07:55:11;8.50;99.90
20045;DHT22;10183;47.808;9.476;2022-10-31T07:57:37;8.30;99.90
20045;DHT22;10183;47.808;9.476;2022-10-31T08:00:08;8.50;99.90
20045;DHT22;10183;47.808;9.476;2022-10-31T08:02:35;8.40;99.90
20045;DHT22;10183;47.808;9.476;2022-10-31T08:05:01;8.50;99.90
20045;DHT22;10183;47.808;9.476;2022-10-31T08:07:28;8.60;99.90
20045;DHT22;10183;47.808;9.476;2022-10-31T08:09:55;8.70;99.90
20045;DHT22;10183;47.808;9.476;2022-10-31T08:12:21;8.70;99.90
20045;DHT22;10183;47.808;9.476;2022-10-31T08:14:48;8.90;99.90
20045;DHT22;10183;47.808;9.476;2022-10-31T08:17:14;9.00;99.90
20045;DHT22;10183;47.808;9.476;2022-10-31T08:19:40;9.10;99.90
20045;DHT22;10183;47.808;9.476;2022-10-31T08:22:06;9.20;99.90
20045;DHT22;10183;47.808;9.476;2022-10-31T08:24:32;9.40;99.90
20045;DHT22;10183;47.808;9.476;2022-10-31T08:26:58;9.40;99.90
20045;DHT22;10183;47.808;9.476;2022-10-31T08:29:24;9.60;99.90
20045;DHT22;10183;47.808;9.476;2022-10-31T08:31:51;9.80;99.90
20045;DHT22;10183;47.808;9.476;2022-10-31T08:34:17;10.00;99.90
20045;DHT22;10183;47.808;9.476;2022-10-31T08:36:43;9.90;99.90
20045;DHT22;10183;47.808;9.476;2022-10-31T08:39:11;10.10;99.90
20045;DHT22;10183;47.808;9.476;2022-10-31T08:41:38;10.20;99.90
20045;DHT22;10183;47.808;9.476;2022-10-31T08:44:04;9.90;99.90
20045;DHT22;10183;47.808;9.476;2022-10-31T08:46:30;10.30;99.90
20045;DHT22;10183;47.808;9.476;2022-10-31T08:48:57;10.50;99.90
20045;DHT22;10183;47.808;9.476;2022-10-31T08:51:23;10.50;99.90
20045;DHT22;10183;47.808;9.476;2022-10-31T08:53:50;10.80;99.90
20045;DHT22;10183;47.808;9.476;2022-10-31T08:56:16;10.80;99.90
20045;DHT22;10183;47.808;9.476;2022-10-31T08:58:42;10.90;99.90
20045;DHT22;10183;47.808;9.476;2022-10-31T09:01:08;11.20;99.90
20045;DHT22;10183;47.808;9.476;2022-10-31T09:03:35;11.50;99.90
20045;DHT22;10183;47.808;9.476;2022-10-31T09:06:02;11.40;99.90
20045;DHT22;10183;47.808;9.476;2022-10-31T09:08:30;11.00;99.90
20045;DHT22;10183;47.808;9.476;2022-10-31T09:10:57;10.90;99.90
20045;DHT22;10183;47.808;9.476;2022-10-31T09:13:24;11.10;99.90
20045;DHT22;10183;47.808;9.476;2022-10-31T09:15:50;11.20;99.90
20045;DHT22;10183;47.808;9.476;2022-10-31T09:18:20;11.10;99.90
20045;DHT22;10183;47.808;9.476;2022-10-31T09:20:48;11.40;99.90
20045;DHT22;10183;47.808;9.476;2022-10-31T09:23:17;11.70;99.90
20045;DHT22;10183;47.808;9.476;2022-10-31T09:25:43;11.60;99.90
20045;DHT22;10183;47.808;9.476;2022-10-31T09:28:12;11.60;99.90
20045;DHT22;10183;47.808;9.476;2022-10-31T09:30:38;11.50;99.90
20045;DHT22;10183;47.808;9.476;2022-10-31T09:33:11;11.60;99.90
20045;DHT22;10183;47.808;9.476;2022-10-31T09:35:38;11.80;99.90
20045;DHT22;10183;47.808;9.476;2022-10-31T09:38:06;11.90;99.90
20045;DHT22;10183;47.808;9.476;2022-10-31T09:46:49;12.50;99.90
20045;DHT22;10183;47.808;9.476;2022-10-31T09:52:24;13.00;99.90
20045;DHT22;10183;47.808;9.476;2022-10-31T09:57:29;14.10;99.90
20045;DHT22;10183;47.808;9.476;2022-10-31T09:59:56;14.50;99.90
20045;DHT22;10183;47.808;9.476;2022-10-31T10:03:04;15.10;99.90
20045;DHT22;10183;47.808;9.476;2022-10-31T10:08:20;15.80;99.90
20045;DHT22;10183;47.808;9.476;2022-10-31T10:30:19;16.10;99.90
20045;DHT22;10183;47.808;9.476;2022-10-31T10:32:50;16.50;99.90
20045;DHT22;10183;47.808;9.476;2022-10-31T10:35:34;16.40;99.90
20045;DHT22;10183;47.808;9.476;2022-10-31T10:40:30;16.70;99.90
20045;DHT22;10183;47.808;9.476;2022-10-31T10:43:20;16.50;99.90
20045;DHT22;10183;47.808;9.476;2022-10-31T10:49:19;17.50;99.90
20045;DHT22;10183;47.808;9.476;2022-10-31T10:59:52;20.20;99.90
20045;DHT22;10183;47.808;9.476;2022-10-31T11:02:23;21.20;99.90
20045;DHT22;10183;47.808;9.476;2022-10-31T11:05:00;22.80;99.90
20045;DHT22;10183;47.808;9.476;2022-10-31T11:07:38;24.00;99.90
20045;DHT22;10183;47.808;9.476;2022-10-31T11:10:06;25.50;99.90
20045;DHT22;10183;47.808;9.476;2022-10-31T11:12:39;26.50;99.90
20045;DHT22;10183;47.808;9.476;2022-10-31T11:15:18;27.00;99.90
20045;DHT22;10183;47.808;9.476;2022-10-31T11:17:52;27.40;99.90
20045;DHT22;10183;47.808;9.476;2022-10-31T11:22:47;21.40;99.90
20045;DHT22;10183;47.808;9.476;2022-10-31T11:25:20;20.50;99.90
20045;DHT22;10183;47.808;9.476;2022-10-31T11:27:58;20.30;99.90
20045;DHT22;10183;47.808;9.476;2022-10-31T11:30:24;19.50;99.90
20045;DHT22;10183;47.808;9.476;2022-10-31T11:32:51;19.00;99.90
20045;DHT22;10183;47.808;9.476;2022-10-31T11:35:20;18.70;99.90
20045;DHT22;10183;47.808;9.476;2022-10-31T11:37:50;17.70;99.90
20045;DHT22;10183;47.808;9.476;2022-10-31T11:40:21;17.40;99.90
20045;DHT22;10183;47.808;9.476;2022-10-31T11:42:49;17.20;99.90
20045;DHT22;10183;47.808;9.476;2022-10-31T11:45:37;16.60;99.90
20045;DHT22;10183;47.808;9.476;2022-10-31T11:48:18;16.00;99.90
20045;DHT22;10183;47.808;9.476;2022-10-31T11:50:56;16.10;99.90
20045;DHT22;10183;47.808;9.476;2022-10-31T11:53:32;16.30;99.90
20045;DHT22;10183;47.808;9.476;2022-10-31T11:56:14;15.90;99.90
20045;DHT22;10183;47.808;9.476;2022-10-31T11:58:41;16.00;99.90
20045;DHT22;10183;47.808;9.476;2022-10-31T12:01:29;15.80;99.90
20045;DHT22;10183;47.808;9.476;2022-10-31T12:04:09;15.50;99.90
20045;DHT22;10183;47.808;9.476;2022-10-31T12:06:39;15.60;99.90
20045;DHT22;10183;47.808;9.476;2022-10-31T12:09:18;15.50;99.90
20045;DHT22;10183;47.808;9.476;2022-10-31T12:17:41;15.20;99.90
20045;DHT22;10183;47.808;9.476;2022-10-31T12:20:24;15.10;99.90
20045;DHT22;10183;47.808;9.476;2022-10-31T12:23:23;15.20;99.90
20045;DHT22;10183;47.808;9.476;2022-10-31T12:26:16;15.30;99.90
20045;DHT22;10183;47.808;9.476;2022-10-31T12:45:54;15.40;99.90
20045;DHT22;10183;47.808;9.476;2022-10-31T12:57:33;15.60;99.90
20045;DHT22;10183;47.808;9.476;2022-10-31T13:00:10;15.80;99.90
20045;DHT22;10183;47.808;9.476;2022-10-31T13:02:51;15.80;99.90
20045;DHT22;10183;47.808;9.476;2022-10-31T13:05:36;16.20;99.90
20045;DHT22;10183;47.808;9.476;2022-10-31T13:08:11;16.70;99.90
20045;DHT22;10183;47.808;9.476;2022-10-31T13:16:37;19.00;99.90
20045;DHT22;10183;47.808;9.476;2022-10-31T13:19:17;19.80;99.90
20045;DHT22;10183;47.808;9.476;2022-10-31T13:21:57;19.60;99.90
20045;DHT22;10183;47.808;9.476;2022-10-31T13:24:59;19.20;99.90
20045;DHT22;10183;47.808;9.476;2022-10-31T13:33:21;22.90;99.90
20045;DHT22;10183;47.808;9.476;2022-10-31T13:35:55;22.20;99.90
20045;DHT22;10183;47.808;9.476;2022-10-31T13:41:11;20.70;99.90
20045;DHT22;10183;47.808;9.476;2022-10-31T13:48:59;21.20;99.90
20045;DHT22;10183;47.808;9.476;2022-10-31T13:51:30;21.20;99.90
20045;DHT22;10183;47.808;9.476;2022-10-31T13:53:58;20.50;99.90
20045;DHT22;10183;47.808;9.476;2022-10-31T13:56:30;20.70;99.90
20045;DHT22;10183;47.808;9.476;2022-10-31T14:01:35;20.40;99.90
20045;DHT22;10183;47.808;9.476;2022-10-31T14:04:25;20.80;99.90
20045;DHT22;10183;47.808;9.476;2022-10-31T14:09:35;20.20;99.90
20045;DHT22;10183;47.808;9.476;2022-10-31T14:12:33;23.40;99.90
20045;DHT22;10183;47.808;9.476;2022-10-31T14:15:05;27.20;99.90
20045;DHT22;10183;47.808;9.476;2022-10-31T14:17:48;24.90;99.90
20045;DHT22;10183;47.808;9.476;2022-10-31T14:22:42;24.50;99.90
20045;DHT22;10183;47.808;9.476;2022-10-31T14:27:53;23.10;99.90
20045;DHT22;10183;47.808;9.476;2022-10-31T14:30:22;22.10;99.90
20045;DHT22;10183;47.808;9.476;2022-10-31T14:33:01;23.10;99.90
20045;DHT22;10183;47.808;9.476;2022-10-31T14:47:29;20.90;99.90
20045;DHT22;10183;47.808;9.476;2022-10-31T14:52:46;21.50;99.90
20045;DHT22;10183;47.808;9.476;2022-10-31T14:55:14;21.60;99.90
20045;DHT22;10183;47.808;9.476;2022-10-31T14:57:48;20.40;99.90
20045;DHT22;10183;47.808;9.476;2022-10-31T15:00:19;19.40;99.90
20045;DHT22;10183;47.808;9.476;2022-10-31T15:03:25;18.00;99.90
20045;DHT22;10183;47.808;9.476;2022-10-31T15:05:56;17.00;99.90
20045;DHT22;10183;47.808;9.476;2022-10-31T15:08:52;16.70;99.90
20045;DHT22;10183;47.808;9.476;2022-10-31T15:11:20;16.70;99.90
20045;DHT22;10183;47.808;9.476;2022-10-31T15:13:54;17.10;99.90
20045;DHT22;10183;47.808;9.476;2022-10-31T15:16:36;17.50;99.90
20045;DHT22;10183;47.808;9.476;2022-10-31T15:19:05;18.00;99.90
20045;DHT22;10183;47.808;9.476;2022-10-31T15:21:40;18.10;99.90
20045;DHT22;10183;47.808;9.476;2022-10-31T15:24:14;18.60;99.90
20045;DHT22;10183;47.808;9.476;2022-10-31T15:26:52;17.80;99.90
20045;DHT22;10183;47.808;9.476;2022-10-31T15:29:27;17.60;99.90
20045;DHT22;10183;47.808;9.476;2022-10-31T15:31:58;17.60;99.90
20045;DHT22;10183;47.808;9.476;2022-10-31T15:34:41;17.30;99.90
20045;DHT22;10183;47.808;9.476;2022-10-31T15:37:28;16.50;99.90
20045;DHT22;10183;47.808;9.476;2022-10-31T15:40:15;15.80;99.90
20045;DHT22;10183;47.808;9.476;2022-10-31T15:42:42;14.90;99.90
20045;DHT22;10183;47.808;9.476;2022-10-31T15:47:45;14.30;99.90
20045;DHT22;10183;47.808;9.476;2022-10-31T15:50:23;14.20;99.90
20045;DHT22;10183;47.808;9.476;2022-10-31T15:52:52;14.20;99.90
20045;DHT22;10183;47.808;9.476;2022-10-31T15:55:27;14.00;99.90
20045;DHT22;10183;47.808;9.476;2022-10-31T15:58:02;13.70;99.90
20045;DHT22;10183;47.808;9.476;2022-10-31T16:00:35;13.70;99.90
20045;DHT22;10183;47.808;9.476;2022-10-31T16:05:50;13.30;99.90
20045;DHT22;10183;47.808;9.476;2022-10-31T16:13:36;13.00;99.90
20045;DHT22;10183;47.808;9.476;2022-10-31T16:16:18;12.70;99.90
20045;DHT22;10183;47.808;9.476;2022-10-31T16:18:46;12.50;99.90
20045;DHT22;10183;47.808;9.476;2022-10-31T16:21:25;12.50;99.90
20045;DHT22;10183;47.808;9.476;2022-10-31T16:26:38;12.40;99.90
20045;DHT22;10183;47.808;9.476;2022-10-31T16:29:38;12.40;99.90
20045;DHT22;10183;47.808;9.476;2022-10-31T16:32:31;12.30;99.90
20045;DHT22;10183;47.808;9.476;2022-10-31T16:37:37;12.20;99.90
20045;DHT22;10183;47.808;9.476;2022-10-31T16:40:03;12.00;99.90
20045;DHT22;10183;47.808;9.476;2022-10-31T16:42:30;11.90;99.90
20045;DHT22;10183;47.808;9.476;2022-10-31T16:44:57;11.90;99.90
20045;DHT22;10183;47.808;9.476;2022-10-31T16:47:23;11.80;99.90
20045;DHT22;10183;47.808;9.476;2022-10-31T16:49:49;11.70;99.90
20045;DHT22;10183;47.808;9.476;2022-10-31T16:52:16;11.60;99.90
20045;DHT22;10183;47.808;9.476;2022-10-31T16:54:43;11.60;99.90
20045;DHT22;10183;47.808;9.476;2022-10-31T16:57:17;11.50;99.90
20045;DHT22;10183;47.808;9.476;2022-10-31T16:59:49;11.40;99.90
20045;DHT22;10183;47.808;9.476;2022-10-31T17:02:17;11.40;99.90
20045;DHT22;10183;47.808;9.476;2022-10-31T17:04:44;11.40;99.90
20045;DHT22;10183;47.808;9.476;2022-10-31T17:07:10;11.20;99.90
20045;DHT22;10183;47.808;9.476;2022-10-31T17:09:36;11.10;99.90
20045;DHT22;10183;47.808;9.476;2022-10-31T17:12:05;11.00;99.90
20045;DHT22;10183;47.808;9.476;2022-10-31T17:14:33;11.00;99.90
20045;DHT22;10183;47.808;9.476;2022-10-31T17:16:59;11.10;99.90
20045;DHT22;10183;47.808;9.476;2022-10-31T17:19:25;11.20;99.90
20045;DHT22;10183;47.808;9.476;2022-10-31T17:21:51;11.10;99.90
20045;DHT22;10183;47.808;9.476;2022-10-31T17:24:18;11.10;99.90
20045;DHT22;10183;47.808;9.476;2022-10-31T17:26:44;11.10;99.90
20045;DHT22;10183;47.808;9.476;2022-10-31T17:29:10;11.00;99.90
20045;DHT22;10183;47.808;9.476;2022-10-31T17:31:37;11.00;99.90
20045;DHT22;10183;47.808;9.476;2022-10-31T17:34:04;10.90;99.90
20045;DHT22;10183;47.808;9.476;2022-10-31T17:36:32;10.80;99.90
20045;DHT22;10183;47.808;9.476;2022-10-31T17:39:00;10.80;99.90
20045;DHT22;10183;47.808;9.476;2022-10-31T17:41:26;10.80;99.90
20045;DHT22;10183;47.808;9.476;2022-10-31T17:43:56;10.70;99.90
20045;DHT22;10183;47.808;9.476;2022-10-31T17:46:23;10.70;99.90
20045;DHT22;10183;47.808;9.476;2022-10-31T17:48:49;10.60;99.90
20045;DHT22;10183;47.808;9.476;2022-10-31T17:51:16;10.60;99.90
20045;DHT22;10183;47.808;9.476;2022-10-31T17:53:42;10.70;99.90
20045;DHT22;10183;47.808;9.476;2022-10-31T17:56:09;10.60;99.90
20045;DHT22;10183;47.808;9.476;2022-10-31T17:58:36;10.70;99.90
20045;DHT22;10183;47.808;9.476;2022-10-31T18:01:14;10.60;99.90
20045;DHT22;10183;47.808;9.476;2022-10-31T18:03:40;10.60;99.90
20045;DHT22;10183;47.808;9.476;2022-10-31T18:06:07;10.60;99.90
20045;DHT22;10183;47.808;9.476;2022-10-31T18:08:35;10.60;99.90
20045;DHT22;10183;47.808;9.476;2022-10-31T18:11:10;10.50;99.90
20045;DHT22;10183;47.808;9.476;2022-10-31T18:13:38;10.50;99.90
20045;DHT22;10183;47.808;9.476;2022-10-31T18:16:12;10.40;99.90
20045;DHT22;10183;47.808;9.476;2022-10-31T18:18:39;10.30;99.90
20045;DHT22;10183;47.808;9.476;2022-10-31T18:21:05;10.30;99.90
20045;DHT22;10183;47.808;9.476;2022-10-31T18:23:32;10.20;99.90
20045;DHT22;10183;47.808;9.476;2022-10-31T18:25:58;10.20;99.90
20045;DHT22;10183;47.808;9.476;2022-10-31T18:28:24;10.20;99.90
20045;DHT22;10183;47.808;9.476;2022-10-31T18:30:50;10.10;99.90
20045;DHT22;10183;47.808;9.476;2022-10-31T18:33:17;9.90;99.90
20045;DHT22;10183;47.808;9.476;2022-10-31T18:35:43;9.90;99.90
20045;DHT22;10183;47.808;9.476;2022-10-31T18:38:09;9.80;99.90
20045;DHT22;10183;47.808;9.476;2022-10-31T18:40:35;9.80;99.90
20045;DHT22;10183;47.808;9.476;2022-10-31T18:43:02;9.80;99.90
20045;DHT22;10183;47.808;9.476;2022-10-31T18:45:28;9.90;99.90
20045;DHT22;10183;47.808;9.476;2022-10-31T18:47:54;9.90;99.90
20045;DHT22;10183;47.808;9.476;2022-10-31T18:50:21;9.80;99.90
20045;DHT22;10183;47.808;9.476;2022-10-31T18:52:48;9.80;99.90